sensor_id;sensor_type;location;lat;lon;timestamp;P1;durP1;ratioP1;P2;durP2;ratioP2
7939;SDS011;4015;48.888;9.226;2023-02-01T00:01:20;3.33;;;3.03;;
7939;SDS011;4015;48.888;9.226;2023-02-01T00:03:45;5.63;;;3.30;;
7939;SDS011;4015;48.888;9.226;2023-02-01T00:06:11;4.23;;;2.50;;
7939;SDS011;4015;48.888;9.226;2023-02-01T00:08:36;3.77;;;2.80;;
7939;SDS011;4015;48.888;9.226;2023-02-01T00:11:03;4.30;;;3.00;;
7939;SDS011;4015;48.888;9.226;2023-02-01T00:13:31;5.73;;;3.00;;
7939;SDS011;4015;48.888;9.226;2023-02-01T00:16:04;2.63;;;2.43;;
7939;SDS011;4015;48.888;9.226;2023-02-01T00:18:29;3.27;;;2.43;;
7939;SDS011;4015;48.888;9.226;2023-02-01T00:20:55;3.60;;;3.17;;
7939;SDS011;4015;48.888;9.226;2023-02-01T00:23:20;3.43;;;2.80;;
7939;SDS011;4015;48.888;9.226;2023-02-01T00:25:45;2.97;;;2.73;;
7939;SDS011;4015;48.888;9.226;2023-02-01T00:28:11;2.87;;;2.60;;
7939;SDS011;4015;48.888;9.226;2023-02-01T00:30:37;3.83;;;2.60;;
7939;SDS011;4015;48.888;9.226;2023-02-01T00:33:03;2.73;;;2.10;;
7939;SDS011;4015;48.888;9.226;2023-02-01T00:35:28;2.83;;;2.57;;
7939;SDS011;4015;48.888;9.226;2023-02-01T00:37:54;2.60;;;2.40;;
7939;SDS011;4015;48.888;9.226;2023-02-01T00:40:19;3.20;;;2.90;;
7939;SDS011;4015;48.888;9.226;2023-02-01T00:42:44;2.97;;;2.77;;
7939;SDS011;4015;48.888;9.226;2023-02-01T00:45:10;2.50;;;2.20;;
7939;SDS011;4015;48.888;9.226;2023-02-01T00:47:35;3.53;;;2.40;;
7939;SDS011;4015;48.888;9.226;2023-02-01T00:50:01;4.77;;;2.13;;
7939;SDS011;4015;48.888;9.226;2023-02-01T00:52:26;3.43;;;2.53;;
7939;SDS011;4015;48.888;9.226;2023-02-01T00:54:51;4.70;;;2.70;;
7939;SDS011;4015;48.888;9.226;2023-02-01T00:57:17;3.73;;;2.90;;
7939;SDS011;4015;48.888;9.226;2023-02-01T00:59:42;2.40;;;2.20;;
7939;SDS011;4015;48.888;9.226;2023-02-01T01:02:07;2.50;;;2.30;;
7939;SDS011;4015;48.888;9.226;2023-02-01T01:04:33;2.57;;;2.37;;
7939;SDS011;4015;48.888;9.226;2023-02-01T01:06:58;2.67;;;1.90;;
7939;SDS011;4015;48.888;9.226;2023-02-01T01:09:23;3.20;;;2.67;;
7939;SDS011;4015;48.888;9.226;2023-02-01T01:11:48;3.13;;;2.70;;
7939;SDS011;4015;48.888;9.226;2023-02-01T01:14:16;2.40;;;2.07;;
7939;SDS011;4015;48.888;9.226;2023-02-01T01:16:41;2.57;;;2.23;;
7939;SDS011;4015;48.888;9.226;2023-02-01T01:19:06;2.60;;;2.40;;
7939;SDS011;4015;48.888;9.226;2023-02-01T01:21:32;2.90;;;2.67;;
7939;SDS011;4015;48.888;9.226;2023-02-01T01:23:57;2.40;;;2.07;;
7939;SDS011;4015;48.888;9.226;2023-02-01T01:26:24;2.67;;;2.47;;
7939;SDS011;4015;48.888;9.226;2023-02-01T01:28:51;5.33;;;2.37;;
7939;SDS011;4015;48.888;9.226;2023-02-01T01:31:17;2.77;;;2.57;;
7939;SDS011;4015;48.888;9.226;2023-02-01T01:33:46;2.33;;;2.13;;
7939;SDS011;4015;48.888;9.226;2023-02-01T01:36:13;3.10;;;2.00;;
7939;SDS011;4015;48.888;9.226;2023-02-01T01:38:39;2.13;;;1.90;;
7939;SDS011;4015;48.888;9.226;2023-02-01T01:41:05;2.33;;;2.10;;
7939;SDS011;4015;48.888;9.226;2023-02-01T01:43:46;2.50;;;2.30;;
7939;SDS011;4015;48.888;9.226;2023-02-01T01:46:26;3.17;;;2.10;;
7939;SDS011;4015;48.888;9.226;2023-02-01T01:52:00;2.13;;;1.93;;
7939;SDS011;4015;48.888;9.226;2023-02-01T01:54:31;1.97;;;1.73;;
7939;SDS011;4015;48.888;9.226;2023-02-01T01:57:01;2.20;;;2.03;;
7939;SDS011;4015;48.888;9.226;2023-02-01T01:59:30;2.30;;;2.07;;
7939;SDS011;4015;48.888;9.226;2023-02-01T02:01:57;2.53;;;2.30;;
7939;SDS011;4015;48.888;9.226;2023-02-01T02:04:23;2.00;;;1.80;;
7939;SDS011;4015;48.888;9.226;2023-02-01T02:09:46;1.90;;;1.70;;
7939;SDS011;4015;48.888;9.226;2023-02-01T02:12:11;2.33;;;1.60;;
7939;SDS011;4015;48.888;9.226;2023-02-01T02:14:37;2.00;;;1.63;;
7939;SDS011;4015;48.888;9.226;2023-02-01T02:30:40;2.47;;;1.63;;
7939;SDS011;4015;48.888;9.226;2023-02-01T02:36:01;1.70;;;1.60;;
7939;SDS011;4015;48.888;9.226;2023-02-01T02:44:18;2.10;;;1.53;;
7939;SDS011;4015;48.888;9.226;2023-02-01T02:47:13;3.67;;;1.67;;
7939;SDS011;4015;48.888;9.226;2023-02-01T02:49:49;2.07;;;1.73;;
7939;SDS011;4015;48.888;9.226;2023-02-01T02:52:39;1.47;;;1.37;;
7939;SDS011;4015;48.888;9.226;2023-02-01T02:55:47;2.07;;;1.77;;
7939;SDS011;4015;48.888;9.226;2023-02-01T02:58:14;2.17;;;1.57;;
7939;SDS011;4015;48.888;9.226;2023-02-01T03:00:59;2.47;;;1.80;;
7939;SDS011;4015;48.888;9.226;2023-02-01T03:03:46;2.17;;;1.60;;
7939;SDS011;4015;48.888;9.226;2023-02-01T03:06:31;1.67;;;1.50;;
7939;SDS011;4015;48.888;9.226;2023-02-01T03:08:58;1.93;;;1.37;;
7939;SDS011;4015;48.888;9.226;2023-02-01T03:11:26;2.07;;;1.70;;
7939;SDS011;4015;48.888;9.226;2023-02-01T03:14:12;2.33;;;1.90;;
7939;SDS011;4015;48.888;9.226;2023-02-01T03:16:41;4.67;;;1.80;;
7939;SDS011;4015;48.888;9.226;2023-02-01T03:19:19;1.63;;;1.53;;
7939;SDS011;4015;48.888;9.226;2023-02-01T03:21:53;1.93;;;1.83;;
7939;SDS011;4015;48.888;9.226;2023-02-01T03:27:22;2.47;;;2.00;;
7939;SDS011;4015;48.888;9.226;2023-02-01T03:32:23;1.90;;;1.80;;
7939;SDS011;4015;48.888;9.226;2023-02-01T03:34:49;2.33;;;2.13;;
7939;SDS011;4015;48.888;9.226;2023-02-01T03:37:23;4.17;;;2.33;;
7939;SDS011;4015;48.888;9.226;2023-02-01T03:40:00;3.20;;;2.37;;
7939;SDS011;4015;48.888;9.226;2023-02-01T03:42:32;2.93;;;2.07;;
7939;SDS011;4015;48.888;9.226;2023-02-01T03:45:10;4.10;;;2.50;;
7939;SDS011;4015;48.888;9.226;2023-02-01T03:47:38;2.60;;;2.40;;
7939;SDS011;4015;48.888;9.226;2023-02-01T03:50:10;2.73;;;2.53;;
7939;SDS011;4015;48.888;9.226;2023-02-01T03:52:45;2.47;;;2.27;;
7939;SDS011;4015;48.888;9.226;2023-02-01T03:55:18;2.57;;;2.37;;
7939;SDS011;4015;48.888;9.226;2023-02-01T03:57:48;2.73;;;2.50;;
7939;SDS011;4015;48.888;9.226;2023-02-01T04:00:21;2.83;;;2.33;;
7939;SDS011;4015;48.888;9.226;2023-02-01T04:02:49;2.87;;;2.13;;
7939;SDS011;4015;48.888;9.226;2023-02-01T04:05:15;2.40;;;2.17;;
7939;SDS011;4015;48.888;9.226;2023-02-01T04:07:41;3.13;;;2.30;;
7939;SDS011;4015;48.888;9.226;2023-02-01T04:10:07;2.60;;;2.27;;
7939;SDS011;4015;48.888;9.226;2023-02-01T04:12:34;2.23;;;2.03;;
7939;SDS011;4015;48.888;9.226;2023-02-01T04:14:59;1.60;;;1.50;;
7939;SDS011;4015;48.888;9.226;2023-02-01T04:17:24;1.97;;;1.73;;
7939;SDS011;4015;48.888;9.226;2023-02-01T04:19:50;1.73;;;1.60;;
7939;SDS011;4015;48.888;9.226;2023-02-01T04:22:15;2.10;;;1.83;;
7939;SDS011;4015;48.888;9.226;2023-02-01T04:24:40;2.03;;;1.70;;
7939;SDS011;4015;48.888;9.226;2023-02-01T04:27:06;2.60;;;1.97;;
7939;SDS011;4015;48.888;9.226;2023-02-01T04:29:31;2.20;;;1.77;;
7939;SDS011;4015;48.888;9.226;2023-02-01T04:31:57;2.63;;;1.77;;
7939;SDS011;4015;48.888;9.226;2023-02-01T04:34:22;1.97;;;1.77;;
7939;SDS011;4015;48.888;9.226;2023-02-01T04:36:49;2.13;;;1.73;;
7939;SDS011;4015;48.888;9.226;2023-02-01T04:39:15;1.73;;;1.60;;
7939;SDS011;4015;48.888;9.226;2023-02-01T04:41:41;2.60;;;2.03;;
7939;SDS011;4015;48.888;9.226;2023-02-01T04:44:08;1.97;;;1.67;;
7939;SDS011;4015;48.888;9.226;2023-02-01T04:46:39;2.27;;;2.00;;
7939;SDS011;4015;48.888;9.226;2023-02-01T04:49:04;2.03;;;1.83;;
7939;SDS011;4015;48.888;9.226;2023-02-01T04:51:30;3.40;;;1.77;;
7939;SDS011;4015;48.888;9.226;2023-02-01T04:53:55;2.33;;;1.90;;
7939;SDS011;4015;48.888;9.226;2023-02-01T04:56:21;2.00;;;1.80;;
7939;SDS011;4015;48.888;9.226;2023-02-01T04:58:46;2.00;;;1.80;;
7939;SDS011;4015;48.888;9.226;2023-02-01T05:01:12;2.27;;;1.90;;
7939;SDS011;4015;48.888;9.226;2023-02-01T05:03:37;2.33;;;1.93;;
7939;SDS011;4015;48.888;9.226;2023-02-01T05:06:03;2.37;;;1.77;;
7939;SDS011;4015;48.888;9.226;2023-02-01T05:08:29;2.57;;;1.67;;
7939;SDS011;4015;48.888;9.226;2023-02-01T05:10:56;2.87;;;1.83;;
7939;SDS011;4015;48.888;9.226;2023-02-01T05:13:21;2.23;;;2.03;;
7939;SDS011;4015;48.888;9.226;2023-02-01T05:16:05;1.80;;;1.70;;
7939;SDS011;4015;48.888;9.226;2023-02-01T05:18:31;2.17;;;1.80;;
7939;SDS011;4015;48.888;9.226;2023-02-01T05:20:57;2.70;;;1.63;;
7939;SDS011;4015;48.888;9.226;2023-02-01T05:23:22;2.23;;;1.97;;
7939;SDS011;4015;48.888;9.226;2023-02-01T05:25:47;1.70;;;1.60;;
7939;SDS011;4015;48.888;9.226;2023-02-01T05:28:13;1.50;;;1.40;;
7939;SDS011;4015;48.888;9.226;2023-02-01T05:30:38;2.20;;;1.93;;
7939;SDS011;4015;48.888;9.226;2023-02-01T05:33:04;6.10;;;1.70;;
7939;SDS011;4015;48.888;9.226;2023-02-01T05:35:29;5.47;;;2.33;;
7939;SDS011;4015;48.888;9.226;2023-02-01T05:37:55;3.00;;;2.07;;
7939;SDS011;4015;48.888;9.226;2023-02-01T05:40:20;1.83;;;1.73;;
7939;SDS011;4015;48.888;9.226;2023-02-01T05:42:46;2.47;;;2.13;;
7939;SDS011;4015;48.888;9.226;2023-02-01T05:45:11;2.70;;;1.90;;
7939;SDS011;4015;48.888;9.226;2023-02-01T05:47:36;3.17;;;1.90;;
7939;SDS011;4015;48.888;9.226;2023-02-01T05:50:02;3.33;;;1.90;;
7939;SDS011;4015;48.888;9.226;2023-02-01T05:52:29;2.83;;;1.67;;
7939;SDS011;4015;48.888;9.226;2023-02-01T05:54:54;3.07;;;1.83;;
7939;SDS011;4015;48.888;9.226;2023-02-01T05:57:20;2.00;;;1.73;;
7939;SDS011;4015;48.888;9.226;2023-02-01T05:59:45;1.57;;;1.47;;
7939;SDS011;4015;48.888;9.226;2023-02-01T06:02:11;2.33;;;2.10;;
7939;SDS011;4015;48.888;9.226;2023-02-01T06:04:36;4.47;;;2.50;;
7939;SDS011;4015;48.888;9.226;2023-02-01T06:07:02;2.30;;;2.00;;
7939;SDS011;4015;48.888;9.226;2023-02-01T06:09:27;1.77;;;1.67;;
7939;SDS011;4015;48.888;9.226;2023-02-01T06:11:53;2.40;;;1.50;;
7939;SDS011;4015;48.888;9.226;2023-02-01T06:14:19;2.07;;;1.87;;
7939;SDS011;4015;48.888;9.226;2023-02-01T06:16:44;1.63;;;1.50;;
7939;SDS011;4015;48.888;9.226;2023-02-01T06:19:11;6.93;;;1.80;;
7939;SDS011;4015;48.888;9.226;2023-02-01T06:21:37;2.20;;;2.00;;
7939;SDS011;4015;48.888;9.226;2023-02-01T06:24:02;2.57;;;2.37;;
7939;SDS011;4015;48.888;9.226;2023-02-01T06:26:28;2.90;;;1.80;;
7939;SDS011;4015;48.888;9.226;2023-02-01T06:28:54;2.93;;;2.27;;
7939;SDS011;4015;48.888;9.226;2023-02-01T06:31:20;2.53;;;1.50;;
7939;SDS011;4015;48.888;9.226;2023-02-01T06:33:46;1.67;;;1.57;;
7939;SDS011;4015;48.888;9.226;2023-02-01T06:36:12;2.77;;;1.90;;
7939;SDS011;4015;48.888;9.226;2023-02-01T06:38:38;2.90;;;2.00;;
7939;SDS011;4015;48.888;9.226;2023-02-01T06:41:04;4.27;;;2.43;;
7939;SDS011;4015;48.888;9.226;2023-02-01T06:43:30;6.93;;;2.40;;
7939;SDS011;4015;48.888;9.226;2023-02-01T06:46:04;3.47;;;2.73;;
7939;SDS011;4015;48.888;9.226;2023-02-01T06:48:34;3.77;;;2.80;;
7939;SDS011;4015;48.888;9.226;2023-02-01T06:51:00;4.00;;;3.20;;
7939;SDS011;4015;48.888;9.226;2023-02-01T06:53:25;5.23;;;3.07;;
7939;SDS011;4015;48.888;9.226;2023-02-01T06:55:54;2.70;;;2.23;;
7939;SDS011;4015;48.888;9.226;2023-02-01T06:58:21;7.00;;;3.60;;
7939;SDS011;4015;48.888;9.226;2023-02-01T07:00:47;6.63;;;3.47;;
7939;SDS011;4015;48.888;9.226;2023-02-01T07:03:13;6.47;;;2.60;;
7939;SDS011;4015;48.888;9.226;2023-02-01T07:05:38;4.60;;;3.43;;
7939;SDS011;4015;48.888;9.226;2023-02-01T07:08:04;10.67;;;3.03;;
7939;SDS011;4015;48.888;9.226;2023-02-01T07:10:29;6.80;;;3.40;;
7939;SDS011;4015;48.888;9.226;2023-02-01T07:12:57;6.00;;;3.43;;
7939;SDS011;4015;48.888;9.226;2023-02-01T07:15:23;4.70;;;3.70;;
7939;SDS011;4015;48.888;9.226;2023-02-01T07:17:48;3.67;;;2.57;;
7939;SDS011;4015;48.888;9.226;2023-02-01T07:20:14;9.20;;;4.03;;
7939;SDS011;4015;48.888;9.226;2023-02-01T07:22:40;9.90;;;3.47;;
7939;SDS011;4015;48.888;9.226;2023-02-01T07:25:05;7.93;;;3.70;;
7939;SDS011;4015;48.888;9.226;2023-02-01T07:27:33;6.23;;;3.30;;
7939;SDS011;4015;48.888;9.226;2023-02-01T07:29:59;8.37;;;4.23;;
7939;SDS011;4015;48.888;9.226;2023-02-01T07:32:27;7.17;;;3.43;;
7939;SDS011;4015;48.888;9.226;2023-02-01T07:34:52;6.53;;;3.07;;
7939;SDS011;4015;48.888;9.226;2023-02-01T07:37:18;9.67;;;3.70;;
7939;SDS011;4015;48.888;9.226;2023-02-01T07:39:43;3.93;;;3.20;;
7939;SDS011;4015;48.888;9.226;2023-02-01T07:42:09;9.60;;;4.20;;
7939;SDS011;4015;48.888;9.226;2023-02-01T07:44:34;4.83;;;3.13;;
7939;SDS011;4015;48.888;9.226;2023-02-01T07:46:59;6.90;;;2.77;;
7939;SDS011;4015;48.888;9.226;2023-02-01T07:49:25;6.30;;;3.40;;
7939;SDS011;4015;48.888;9.226;2023-02-01T07:51:50;9.73;;;3.70;;
7939;SDS011;4015;48.888;9.226;2023-02-01T07:54:16;5.67;;;3.20;;
7939;SDS011;4015;48.888;9.226;2023-02-01T07:56:41;4.33;;;3.07;;
7939;SDS011;4015;48.888;9.226;2023-02-01T07:59:06;6.07;;;3.67;;
7939;SDS011;4015;48.888;9.226;2023-02-01T08:01:32;7.27;;;3.47;;
7939;SDS011;4015;48.888;9.226;2023-02-01T08:04:02;11.13;;;3.50;;
7939;SDS011;4015;48.888;9.226;2023-02-01T08:06:29;6.97;;;3.60;;
7939;SDS011;4015;48.888;9.226;2023-02-01T08:08:56;7.13;;;3.30;;
7939;SDS011;4015;48.888;9.226;2023-02-01T08:11:22;5.83;;;3.50;;
7939;SDS011;4015;48.888;9.226;2023-02-01T08:13:49;7.17;;;3.67;;
7939;SDS011;4015;48.888;9.226;2023-02-01T08:16:16;8.83;;;3.90;;
7939;SDS011;4015;48.888;9.226;2023-02-01T08:18:44;12.27;;;4.50;;
7939;SDS011;4015;48.888;9.226;2023-02-01T08:21:14;6.40;;;3.40;;
7939;SDS011;4015;48.888;9.226;2023-02-01T08:23:43;10.23;;;3.73;;
7939;SDS011;4015;48.888;9.226;2023-02-01T08:28:42;9.73;;;3.43;;
7939;SDS011;4015;48.888;9.226;2023-02-01T08:31:18;5.87;;;3.00;;
7939;SDS011;4015;48.888;9.226;2023-02-01T08:33:48;8.20;;;3.60;;
7939;SDS011;4015;48.888;9.226;2023-02-01T08:36:17;8.57;;;2.70;;
7939;SDS011;4015;48.888;9.226;2023-02-01T08:38:43;7.30;;;3.87;;
7939;SDS011;4015;48.888;9.226;2023-02-01T08:41:10;7.20;;;3.40;;
7939;SDS011;4015;48.888;9.226;2023-02-01T08:43:38;9.33;;;3.17;;
7939;SDS011;4015;48.888;9.226;2023-02-01T08:46:04;7.23;;;3.07;;
7939;SDS011;4015;48.888;9.226;2023-02-01T08:48:30;8.97;;;3.33;;
7939;SDS011;4015;48.888;9.226;2023-02-01T08:50:56;9.10;;;3.23;;
7939;SDS011;4015;48.888;9.226;2023-02-01T08:53:22;6.10;;;3.40;;
7939;SDS011;4015;48.888;9.226;2023-02-01T08:55:48;7.67;;;2.90;;
7939;SDS011;4015;48.888;9.226;2023-02-01T08:58:14;12.40;;;3.33;;
7939;SDS011;4015;48.888;9.226;2023-02-01T09:00:39;6.27;;;2.73;;
7939;SDS011;4015;48.888;9.226;2023-02-01T09:03:05;10.07;;;3.03;;
7939;SDS011;4015;48.888;9.226;2023-02-01T09:05:31;7.47;;;2.93;;
7939;SDS011;4015;48.888;9.226;2023-02-01T09:07:56;6.27;;;2.60;;
7939;SDS011;4015;48.888;9.226;2023-02-01T09:10:21;6.97;;;3.30;;
7939;SDS011;4015;48.888;9.226;2023-02-01T09:12:47;14.07;;;3.07;;
7939;SDS011;4015;48.888;9.226;2023-02-01T09:15:12;8.60;;;2.90;;
7939;SDS011;4015;48.888;9.226;2023-02-01T09:17:37;20.77;;;8.60;;
7939;SDS011;4015;48.888;9.226;2023-02-01T09:20:03;9.57;;;3.23;;
7939;SDS011;4015;48.888;9.226;2023-02-01T09:22:29;6.03;;;2.77;;
7939;SDS011;4015;48.888;9.226;2023-02-01T09:24:54;7.30;;;2.90;;
7939;SDS011;4015;48.888;9.226;2023-02-01T09:27:20;6.40;;;2.73;;
7939;SDS011;4015;48.888;9.226;2023-02-01T09:29:45;12.93;;;4.17;;
7939;SDS011;4015;48.888;9.226;2023-02-01T09:32:14;11.90;;;3.80;;
7939;SDS011;4015;48.888;9.226;2023-02-01T09:34:39;8.57;;;3.10;;
7939;SDS011;4015;48.888;9.226;2023-02-01T09:37:05;8.53;;;2.70;;
7939;SDS011;4015;48.888;9.226;2023-02-01T09:39:30;12.83;;;3.50;;
7939;SDS011;4015;48.888;9.226;2023-02-01T09:47:18;7.83;;;2.80;;
7939;SDS011;4015;48.888;9.226;2023-02-01T09:52:38;6.83;;;3.13;;
7939;SDS011;4015;48.888;9.226;2023-02-01T09:55:11;9.27;;;2.77;;
7939;SDS011;4015;48.888;9.226;2023-02-01T09:57:45;8.57;;;2.47;;
7939;SDS011;4015;48.888;9.226;2023-02-01T10:00:29;9.27;;;2.77;;
7939;SDS011;4015;48.888;9.226;2023-02-01T10:02:58;10.70;;;3.10;;
7939;SDS011;4015;48.888;9.226;2023-02-01T10:14:17;8.07;;;3.03;;
7939;SDS011;4015;48.888;9.226;2023-02-01T10:19:46;7.90;;;2.30;;
7939;SDS011;4015;48.888;9.226;2023-02-01T10:25:23;8.17;;;3.03;;
7939;SDS011;4015;48.888;9.226;2023-02-01T10:27:52;10.67;;;3.60;;
7939;SDS011;4015;48.888;9.226;2023-02-01T10:30:19;13.50;;;3.27;;
7939;SDS011;4015;48.888;9.226;2023-02-01T10:32:48;4.80;;;2.33;;
7939;SDS011;4015;48.888;9.226;2023-02-01T10:35:30;9.43;;;3.07;;
7939;SDS011;4015;48.888;9.226;2023-02-01T10:38:01;10.80;;;2.90;;
7939;SDS011;4015;48.888;9.226;2023-02-01T10:40:28;13.47;;;3.70;;
7939;SDS011;4015;48.888;9.226;2023-02-01T10:42:54;11.27;;;3.10;;
7939;SDS011;4015;48.888;9.226;2023-02-01T10:45:25;15.87;;;3.83;;
7939;SDS011;4015;48.888;9.226;2023-02-01T10:47:52;10.10;;;4.70;;
7939;SDS011;4015;48.888;9.226;2023-02-01T10:50:34;11.10;;;4.23;;
7939;SDS011;4015;48.888;9.226;2023-02-01T10:55:49;8.33;;;3.10;;
7939;SDS011;4015;48.888;9.226;2023-02-01T11:00:47;10.60;;;3.43;;
7939;SDS011;4015;48.888;9.226;2023-02-01T11:03:36;15.50;;;2.87;;
7939;SDS011;4015;48.888;9.226;2023-02-01T11:06:13;11.60;;;3.00;;
7939;SDS011;4015;48.888;9.226;2023-02-01T11:08:51;5.47;;;2.20;;
7939;SDS011;4015;48.888;9.226;2023-02-01T11:11:19;10.57;;;3.03;;
7939;SDS011;4015;48.888;9.226;2023-02-01T11:13:44;10.20;;;3.67;;
7939;SDS011;4015;48.888;9.226;2023-02-01T11:16:18;12.03;;;3.77;;
7939;SDS011;4015;48.888;9.226;2023-02-01T11:18:43;8.17;;;2.83;;
7939;SDS011;4015;48.888;9.226;2023-02-01T11:21:09;16.80;;;4.20;;
7939;SDS011;4015;48.888;9.226;2023-02-01T11:23:40;16.40;;;3.53;;
7939;SDS011;4015;48.888;9.226;2023-02-01T11:26:10;11.57;;;3.20;;
7939;SDS011;4015;48.888;9.226;2023-02-01T11:28:53;6.67;;;2.60;;
7939;SDS011;4015;48.888;9.226;2023-02-01T11:31:22;10.07;;;2.87;;
7939;SDS011;4015;48.888;9.226;2023-02-01T11:33:50;9.33;;;2.70;;
7939;SDS011;4015;48.888;9.226;2023-02-01T11:36:21;9.07;;;2.03;;
7939;SDS011;4015;48.888;9.226;2023-02-01T11:41:32;7.57;;;2.60;;
7939;SDS011;4015;48.888;9.226;2023-02-01T11:43:59;11.50;;;4.20;;
7939;SDS011;4015;48.888;9.226;2023-02-01T11:46:30;10.77;;;3.17;;
7939;SDS011;4015;48.888;9.226;2023-02-01T11:48:57;9.70;;;2.27;;
7939;SDS011;4015;48.888;9.226;2023-02-01T11:51:51;8.63;;;3.13;;
7939;SDS011;4015;48.888;9.226;2023-02-01T11:55:02;9.90;;;2.70;;
7939;SDS011;4015;48.888;9.226;2023-02-01T12:03:18;8.90;;;2.23;;
7939;SDS011;4015;48.888;9.226;2023-02-01T12:05:59;8.87;;;2.20;;
7939;SDS011;4015;48.888;9.226;2023-02-01T12:08:52;7.07;;;2.83;;
7939;SDS011;4015;48.888;9.226;2023-02-01T12:12:08;9.23;;;2.47;;
7939;SDS011;4015;48.888;9.226;2023-02-01T12:31:02;10.67;;;3.70;;
7939;SDS011;4015;48.888;9.226;2023-02-01T12:33:46;13.47;;;3.87;;
7939;SDS011;4015;48.888;9.226;2023-02-01T12:49:50;8.53;;;2.30;;
7939;SDS011;4015;48.888;9.226;2023-02-01T12:52:20;9.30;;;3.03;;
7939;SDS011;4015;48.888;9.226;2023-02-01T12:57:42;7.53;;;3.23;;
7939;SDS011;4015;48.888;9.226;2023-02-01T13:00:16;10.10;;;3.80;;
7939;SDS011;4015;48.888;9.226;2023-02-01T13:02:59;9.53;;;3.50;;
7939;SDS011;4015;48.888;9.226;2023-02-01T13:05:33;9.30;;;2.60;;
7939;SDS011;4015;48.888;9.226;2023-02-01T13:08:12;14.13;;;6.27;;
7939;SDS011;4015;48.888;9.226;2023-02-01T13:10:46;9.00;;;2.80;;
7939;SDS011;4015;48.888;9.226;2023-02-01T13:13:24;4.17;;;2.60;;
7939;SDS011;4015;48.888;9.226;2023-02-01T13:16:06;8.67;;;2.20;;
7939;SDS011;4015;48.888;9.226;2023-02-01T13:18:38;9.63;;;3.00;;
7939;SDS011;4015;48.888;9.226;2023-02-01T13:21:13;8.33;;;3.20;;
7939;SDS011;4015;48.888;9.226;2023-02-01T13:23:45;12.50;;;3.43;;
7939;SDS011;4015;48.888;9.226;2023-02-01T13:26:13;11.17;;;3.93;;
7939;SDS011;4015;48.888;9.226;2023-02-01T13:42:28;8.07;;;3.27;;
7939;SDS011;4015;48.888;9.226;2023-02-01T13:50:26;6.77;;;2.03;;
7939;SDS011;4015;48.888;9.226;2023-02-01T13:53:05;15.83;;;3.23;;
7939;SDS011;4015;48.888;9.226;2023-02-01T13:55:41;9.60;;;2.80;;
7939;SDS011;4015;48.888;9.226;2023-02-01T13:58:22;8.90;;;2.70;;
7939;SDS011;4015;48.888;9.226;2023-02-01T14:03:46;9.60;;;2.90;;
7939;SDS011;4015;48.888;9.226;2023-02-01T14:11:34;8.17;;;2.60;;
7939;SDS011;4015;48.888;9.226;2023-02-01T14:19:08;9.73;;;2.80;;
7939;SDS011;4015;48.888;9.226;2023-02-01T14:21:48;7.30;;;2.27;;
7939;SDS011;4015;48.888;9.226;2023-02-01T14:24:29;14.70;;;2.60;;
7939;SDS011;4015;48.888;9.226;2023-02-01T14:26:57;11.87;;;2.90;;
7939;SDS011;4015;48.888;9.226;2023-02-01T14:29:26;13.50;;;2.90;;
7939;SDS011;4015;48.888;9.226;2023-02-01T14:34:51;7.17;;;2.30;;
7939;SDS011;4015;48.888;9.226;2023-02-01T14:39:53;9.17;;;3.17;;
7939;SDS011;4015;48.888;9.226;2023-02-01T14:55:49;11.27;;;3.67;;
7939;SDS011;4015;48.888;9.226;2023-02-01T15:00:50;8.00;;;3.23;;
7939;SDS011;4015;48.888;9.226;2023-02-01T15:06:23;10.70;;;3.23;;
7939;SDS011;4015;48.888;9.226;2023-02-01T15:08:55;7.93;;;2.77;;
7939;SDS011;4015;48.888;9.226;2023-02-01T15:11:24;13.30;;;3.77;;
7939;SDS011;4015;48.888;9.226;2023-02-01T15:13:51;7.40;;;2.60;;
7939;SDS011;4015;48.888;9.226;2023-02-01T15:16:19;5.00;;;2.47;;
7939;SDS011;4015;48.888;9.226;2023-02-01T15:18:46;7.27;;;2.33;;
7939;SDS011;4015;48.888;9.226;2023-02-01T15:21:17;10.57;;;3.10;;
7939;SDS011;4015;48.888;9.226;2023-02-01T15:23:44;11.93;;;3.07;;
7939;SDS011;4015;48.888;9.226;2023-02-01T15:26:23;7.17;;;2.77;;
7939;SDS011;4015;48.888;9.226;2023-02-01T15:28:50;11.60;;;3.13;;
7939;SDS011;4015;48.888;9.226;2023-02-01T15:31:15;9.50;;;2.93;;
7939;SDS011;4015;48.888;9.226;2023-02-01T15:33:57;9.23;;;3.27;;
7939;SDS011;4015;48.888;9.226;2023-02-01T15:36:22;6.00;;;1.97;;
7939;SDS011;4015;48.888;9.226;2023-02-01T15:39:11;11.53;;;3.57;;
7939;SDS011;4015;48.888;9.226;2023-02-01T15:41:44;5.73;;;2.83;;
7939;SDS011;4015;48.888;9.226;2023-02-01T15:44:17;9.53;;;2.97;;
7939;SDS011;4015;48.888;9.226;2023-02-01T15:46:47;12.43;;;3.10;;
7939;SDS011;4015;48.888;9.226;2023-02-01T15:49:24;6.20;;;2.13;;
7939;SDS011;4015;48.888;9.226;2023-02-01T15:51:58;11.17;;;2.70;;
7939;SDS011;4015;48.888;9.226;2023-02-01T15:54:26;8.47;;;2.47;;
7939;SDS011;4015;48.888;9.226;2023-02-01T15:56:55;7.83;;;2.53;;
7939;SDS011;4015;48.888;9.226;2023-02-01T15:59:36;11.97;;;2.73;;
7939;SDS011;4015;48.888;9.226;2023-02-01T16:04:53;11.53;;;3.10;;
7939;SDS011;4015;48.888;9.226;2023-02-01T16:07:29;10.10;;;2.60;;
7939;SDS011;4015;48.888;9.226;2023-02-01T16:09:57;5.20;;;2.10;;
7939;SDS011;4015;48.888;9.226;2023-02-01T16:12:31;8.07;;;2.63;;
7939;SDS011;4015;48.888;9.226;2023-02-01T16:15:03;10.47;;;3.60;;
7939;SDS011;4015;48.888;9.226;2023-02-01T16:17:29;7.27;;;2.47;;
7939;SDS011;4015;48.888;9.226;2023-02-01T16:19:54;8.27;;;2.20;;
7939;SDS011;4015;48.888;9.226;2023-02-01T16:22:20;10.60;;;1.97;;
7939;SDS011;4015;48.888;9.226;2023-02-01T16:24:45;5.87;;;2.00;;
7939;SDS011;4015;48.888;9.226;2023-02-01T16:27:11;9.43;;;2.63;;
7939;SDS011;4015;48.888;9.226;2023-02-01T16:29:36;11.30;;;2.47;;
7939;SDS011;4015;48.888;9.226;2023-02-01T16:32:01;5.43;;;2.67;;
7939;SDS011;4015;48.888;9.226;2023-02-01T16:34:28;7.23;;;2.87;;
7939;SDS011;4015;48.888;9.226;2023-02-01T16:36:53;11.50;;;2.53;;
7939;SDS011;4015;48.888;9.226;2023-02-01T16:39:22;6.83;;;2.13;;
7939;SDS011;4015;48.888;9.226;2023-02-01T16:41:48;8.23;;;3.10;;
7939;SDS011;4015;48.888;9.226;2023-02-01T16:44:13;8.70;;;2.67;;
7939;SDS011;4015;48.888;9.226;2023-02-01T16:46:39;9.83;;;2.63;;
7939;SDS011;4015;48.888;9.226;2023-02-01T16:49:08;10.50;;;2.93;;
7939;SDS011;4015;48.888;9.226;2023-02-01T16:51:43;6.43;;;2.57;;
7939;SDS011;4015;48.888;9.226;2023-02-01T16:54:09;5.13;;;2.47;;
7939;SDS011;4015;48.888;9.226;2023-02-01T16:56:35;11.67;;;2.97;;
7939;SDS011;4015;48.888;9.226;2023-02-01T16:59:07;7.63;;;2.70;;
7939;SDS011;4015;48.888;9.226;2023-02-01T17:01:33;10.07;;;2.50;;
7939;SDS011;4015;48.888;9.226;2023-02-01T17:03:59;9.73;;;3.20;;
7939;SDS011;4015;48.888;9.226;2023-02-01T17:06:25;8.70;;;3.37;;
7939;SDS011;4015;48.888;9.226;2023-02-01T17:08:53;8.67;;;2.47;;
7939;SDS011;4015;48.888;9.226;2023-02-01T17:11:20;5.07;;;2.27;;
7939;SDS011;4015;48.888;9.226;2023-02-01T17:13:46;8.90;;;2.70;;
7939;SDS011;4015;48.888;9.226;2023-02-01T17:18:43;5.13;;;2.30;;
7939;SDS011;4015;48.888;9.226;2023-02-01T17:21:11;8.93;;;2.33;;
7939;SDS011;4015;48.888;9.226;2023-02-01T17:23:37;11.43;;;2.80;;
7939;SDS011;4015;48.888;9.226;2023-02-01T17:26:02;9.60;;;3.50;;
7939;SDS011;4015;48.888;9.226;2023-02-01T17:28:28;13.67;;;3.23;;
7939;SDS011;4015;48.888;9.226;2023-02-01T17:30:54;6.13;;;2.47;;
7939;SDS011;4015;48.888;9.226;2023-02-01T17:33:22;10.20;;;3.13;;
7939;SDS011;4015;48.888;9.226;2023-02-01T17:35:50;8.67;;;2.87;;
7939;SDS011;4015;48.888;9.226;2023-02-01T17:38:17;6.17;;;3.10;;
7939;SDS011;4015;48.888;9.226;2023-02-01T17:40:43;7.60;;;2.47;;
7939;SDS011;4015;48.888;9.226;2023-02-01T17:43:15;9.97;;;2.80;;
7939;SDS011;4015;48.888;9.226;2023-02-01T17:45:57;11.43;;;3.50;;
7939;SDS011;4015;48.888;9.226;2023-02-01T17:48:26;9.53;;;2.00;;
7939;SDS011;4015;48.888;9.226;2023-02-01T17:50:51;8.77;;;2.47;;
7939;SDS011;4015;48.888;9.226;2023-02-01T17:53:22;7.10;;;1.87;;
7939;SDS011;4015;48.888;9.226;2023-02-01T17:55:49;9.80;;;2.87;;
7939;SDS011;4015;48.888;9.226;2023-02-01T17:58:15;5.17;;;2.23;;
7939;SDS011;4015;48.888;9.226;2023-02-01T18:00:42;5.87;;;2.90;;
7939;SDS011;4015;48.888;9.226;2023-02-01T18:03:16;5.33;;;1.80;;
7939;SDS011;4015;48.888;9.226;2023-02-01T18:05:46;7.57;;;2.30;;
7939;SDS011;4015;48.888;9.226;2023-02-01T18:08:15;8.73;;;2.60;;
7939;SDS011;4015;48.888;9.226;2023-02-01T18:10:42;10.70;;;2.60;;
7939;SDS011;4015;48.888;9.226;2023-02-01T18:13:08;12.07;;;2.87;;